Terminal Aerodrome Forecast
Issued by NWS

Home | Current Version | Previous Version | Text Only | Print | Product List | Glossary On
Versions: 1 2 3 4 5 6 7 8 9 10 11 12 13 14
000
FTUS46 KLOX 181100 RRA
TAFSBA
TAF
KSBA 181141Z 1812/1912 VRB03KT P6SM SKC
     FM181400 VRB03KT P6SM SCT006
     FM181500 20006KT P6SM BKN008
     FM182000 25008KT P6SM SCT012
     FM190300 VRB03KT P6SM BKN015
     FM190600 VRB03KT P6SM OVC021=

USA.gov is the U.S. government's official web portal to all federal, state and local government web resources and services.